Time;durP1;ratioP1;P1;durP2;ratioP2;P2;SDS_P1;SDS_P2;PMS_P1;PMS_P2;Temp;Humidity;BMP_temperature;BMP_pressure;BME280_temperature;BME280_humidity;BME280_pressure;Samples;Min_cycle;Max_cycle;Signal;HPM_P1;HPM_P2
2024/01/16 00:07:16;;;;;;;8.90;4.65;;;;;;;-0.23;70.57;98435.13;32132519;27;20436;-62
2024/01/16 00:22:16;;;;;;;7.18;3.50;;;;;;;-0.30;71.19;98468.06;32131246;27;20482;-64
2024/01/16 00:37:17;;;;;;;5.90;3.58;;;;;;;-0.27;71.65;98512.28;32127332;27;42877;-60
2024/01/16 00:52:17;;;;;;;2.10;1.10;;;;;;;-0.41;71.99;98552.78;32128057;27;41772;-62
2024/01/16 01:07:18;;;;;;;4.68;1.13;;;;;;;-0.60;71.90;98579.78;32118033;27;20502;-61
2024/01/16 01:22:18;;;;;;;2.17;1.05;;;;;;;-0.85;72.37;98615.97;32122204;27;27183;-63
2024/01/16 01:37:19;;;;;;;3.20;1.38;;;;;;;-0.88;72.85;98616.25;32118566;27;41368;-64
2024/01/16 01:52:19;;;;;;;3.88;1.70;;;;;;;-0.77;72.68;98650.09;32121096;27;41378;-61
2024/01/16 02:07:19;;;;;;;3.33;1.73;;;;;;;-0.81;72.44;98659.19;32122285;27;20455;-60
2024/01/16 02:22:23;;;;;;;4.97;2.42;;;;;;;-0.98;72.58;98683.38;32109505;27;26856;-60
2024/01/16 02:37:24;;;;;;;5.27;2.60;;;;;;;-1.06;72.56;98697.94;32123313;27;20608;-63
2024/01/16 02:52:24;;;;;;;6.03;2.60;;;;;;;-1.12;72.91;98723.75;32140076;27;20150;-60
2024/01/16 03:07:25;;;;;;;5.00;2.42;;;;;;;-1.06;72.61;98736.31;32135420;27;42946;-61
2024/01/16 03:22:25;;;;;;;3.97;1.77;;;;;;;-1.12;72.92;98744.66;32136827;27;20034;-63
2024/01/16 03:37:26;;;;;;;3.67;1.55;;;;;;;-1.32;72.79;98765.50;32134625;27;20043;-61
2024/01/16 03:52:26;;;;;;;3.22;1.83;;;;;;;-1.59;73.49;98753.78;32132696;27;20078;-62
2024/01/16 04:07:26;;;;;;;3.60;1.73;;;;;;;-1.65;73.97;98785.63;32133281;27;20030;-62
2024/01/16 04:22:27;;;;;;;3.22;1.20;;;;;;;-1.57;73.95;98774.56;32131210;27;20060;-61
2024/01/16 04:37:27;;;;;;;1.92;1.02;;;;;;;-1.52;74.15;98811.56;32128303;27;38049;-63
2024/01/16 04:52:27;;;;;;;2.55;1.60;;;;;;;-1.49;74.56;98790.44;32122683;27;42729;-62
2024/01/16 05:07:27;;;;;;;4.75;1.75;;;;;;;-1.51;74.75;98818.44;32123306;27;41775;-62
2024/01/16 05:22:28;;;;;;;9.57;1.88;;;;;;;-1.56;74.68;98820.59;32122002;27;41693;-60
2024/01/16 05:37:29;;;;;;;2.90;1.83;;;;;;;-1.38;75.08;98824.31;32115035;27;36911;-63
2024/01/16 05:52:29;;;;;;;4.65;2.08;;;;;;;-1.31;74.92;98845.53;32119340;27;20384;-61
2024/01/16 06:07:30;;;;;;;3.60;2.30;;;;;;;-1.05;75.00;98840.75;32138985;27;20038;-63
2024/01/16 06:22:30;;;;;;;4.05;1.88;;;;;;;-0.89;74.40;98897.81;32087997;27;41653;-61
2024/01/16 06:37:31;;;;;;;3.58;1.63;;;;;;;-1.08;74.13;98911.56;32137489;27;20034;-63
2024/01/16 06:52:31;;;;;;;4.03;2.00;;;;;;;-1.14;74.04;98943.44;32132578;27;20364;-61
2024/01/16 07:07:31;;;;;;;3.28;1.60;;;;;;;-1.08;74.40;98976.91;32093235;27;20455;-60
2024/01/16 07:22:32;;;;;;;5.28;2.63;;;;;;;-0.95;74.12;99008.09;32107301;27;41598;-59
2024/01/16 07:37:32;;;;;;;4.93;2.90;;;;;;;-0.98;73.90;99031.88;32113858;27;41730;-64
2024/01/16 07:52:32;;;;;;;4.55;2.00;;;;;;;-0.71;74.15;99054.09;32099947;27;20051;-63
2024/01/16 08:07:34;;;;;;;6.97;2.78;;;;;;;-0.21;73.99;99074.44;32121793;27;41820;-64
2024/01/16 08:22:34;;;;;;;5.45;2.78;;;;;;;-0.07;73.26;99109.91;32079750;27;20047;-62
2024/01/16 08:37:35;;;;;;;8.65;3.90;;;;;;;0.15;73.22;99142.97;32056539;27;41738;-61
2024/01/16 08:52:35;;;;;;;6.35;3.47;;;;;;;3.67;72.60;99142.53;32053992;27;43084;-63
2024/01/16 09:07:35;;;;;;;7.82;3.47;;;;;;;3.85;69.11;99157.50;32043550;27;20043;-63
2024/01/16 09:22:36;;;;;;;4.97;3.33;;;;;;;2.88;68.79;99160.66;32083561;27;20043;-61
2024/01/16 09:37:36;;;;;;;9.73;4.03;;;;;;;2.17;69.09;99180.41;32066826;27;27436;-65
2024/01/16 09:52:36;;;;;;;4.68;2.33;;;;;;;2.02;69.41;99193.16;31950575;27;20051;-64
2024/01/16 10:07:45;;;;;;;4.50;2.42;;;;;;;2.09;68.20;99195.19;31968613;27;40600;-66
2024/01/16 10:22:54;;;;;;;4.28;2.40;;;;;;;1.81;68.58;99211.66;31987768;27;20122;-62
2024/01/16 10:37:56;;;;;;;6.30;2.97;;;;;;;1.57;68.15;99229.63;31982914;27;20035;-63
2024/01/16 10:52:59;;;;;;;5.53;3.08;;;;;;;1.00;68.40;99236.22;32124848;27;43352;-62
2024/01/16 11:08:01;;;;;;;10.93;4.83;;;;;;;1.38;68.68;99246.16;32139629;27;20340;-63
2024/01/16 11:23:02;;;;;;;7.55;2.92;;;;;;;2.39;68.36;99243.31;32083881;27;20070;-63
2024/01/16 11:38:21;;;;;;;5.00;3.10;;;;;;;3.36;66.17;99255.28;32008794;27;20046;-62
2024/01/16 11:53:37;;;;;;;8.85;4.70;;;;;;;3.14;65.79;99264.41;32005915;27;20048;-62
2024/01/16 12:08:37;;;;;;;8.65;4.28;;;;;;;2.42;65.68;99275.41;32007002;27;20122;-62
2024/01/16 12:23:37;;;;;;;6.50;3.67;;;;;;;5.79;65.46;99275.94;32003546;27;25483;-62
2024/01/16 12:38:38;;;;;;;6.05;3.30;;;;;;;4.90;62.31;99292.06;32001874;27;20038;-61
2024/01/16 12:53:39;;;;;;;7.82;4.53;;;;;;;5.59;61.92;99314.03;31999057;27;20474;-61
2024/01/16 13:08:40;;;;;;;5.70;4.93;;;;;;;3.95;61.45;99326.91;31996690;27;20043;-62
2024/01/16 13:23:40;;;;;;;5.50;3.53;;;;;;;3.59;62.33;99323.38;31998014;27;41798;-61
2024/01/16 13:38:40;;;;;;;4.45;2.50;;;;;;;3.94;61.72;99312.06;31997077;27;29450;-67
2024/01/16 13:53:41;;;;;;;4.90;2.85;;;;;;;2.52;61.99;99334.03;31995110;27;20054;-62
2024/01/16 14:08:41;;;;;;;7.40;3.58;;;;;;;1.52;62.99;99343.72;31993122;27;20106;-62
2024/01/16 14:23:41;;;;;;;8.65;4.40;;;;;;;0.97;64.20;99358.91;32006053;27;41273;-61
2024/01/16 14:38:43;;;;;;;7.60;3.92;;;;;;;0.41;65.17;99354.81;32012205;27;42920;-63
2024/01/16 14:53:43;;;;;;;9.10;5.10;;;;;;;-0.20;65.42;99353.56;32011170;27;20051;-62
2024/01/16 15:08:43;;;;;;;6.82;4.35;;;;;;;-0.99;66.61;99357.03;32009988;27;41750;-62
2024/01/16 15:23:44;;;;;;;10.25;4.32;;;;;;;-1.44;67.57;99389.09;32009805;27;20043;-60
2024/01/16 15:38:45;;;;;;;10.80;5.57;;;;;;;-1.86;67.95;99393.88;32005862;27;20035;-66
2024/01/16 15:53:46;;;;;;;7.38;4.25;;;;;;;-2.18;68.95;99394.41;32005691;27;20149;-64
2024/01/16 16:08:46;;;;;;;6.47;4.07;;;;;;;-2.69;69.41;99408.38;32004420;27;20921;-61
2024/01/16 16:23:46;;;;;;;27.15;7.88;;;;;;;-3.31;70.14;99399.44;32001474;27;40818;-62
2024/01/16 16:38:46;;;;;;;11.80;6.57;;;;;;;-3.82;70.77;99412.31;31995267;27;42792;-64
2024/01/16 16:53:47;;;;;;;13.35;5.90;;;;;;;-4.07;70.63;99421.66;31658818;27;96839;-61
2024/01/16 17:08:48;;;;;;;34.00;15.63;;;;;;;-4.47;72.00;99426.69;31459591;27;96889;-62
2024/01/16 17:23:48;;;;;;;22.80;11.98;;;;;;;-4.68;72.40;99437.47;31453265;27;111149;-62
2024/01/16 17:38:55;;;;;;;28.27;14.25;;;;;;;-4.84;72.91;99440.16;31453361;27;97163;-62
2024/01/16 17:53:55;;;;;;;23.17;13.43;;;;;;;-5.04;73.35;99450.84;31460756;27;97458;-61
2024/01/16 18:08:58;;;;;;;30.85;13.52;;;;;;;-5.15;73.42;99462.72;31477007;27;125233;-61
2024/01/16 18:23:58;;;;;;;32.08;14.68;;;;;;;-4.82;73.58;99461.66;31476589;27;96674;-61
2024/01/16 18:38:58;;;;;;;32.63;14.45;;;;;;;-4.59;73.13;99451.69;31471760;27;126838;-63
2024/01/16 18:53:58;;;;;;;19.10;9.20;;;;;;;-4.29;73.05;99461.13;31471970;27;125560;-64
2024/01/16 19:08:59;;;;;;;28.10;12.43;;;;;;;-4.09;72.72;99458.19;31486563;27;97598;-63
2024/01/16 19:23:59;;;;;;;23.45;12.73;;;;;;;-3.92;72.68;99471.91;31998829;27;124741;-64
2024/01/16 19:38:59;;;;;;;21.67;10.05;;;;;;;-3.76;72.60;99461.34;32136445;27;41818;-63
2024/01/16 19:54:00;;;;;;;12.82;7.60;;;;;;;-3.86;72.70;99458.50;32131886;27;40995;-62
2024/01/16 20:09:04;;;;;;;14.95;7.65;;;;;;;-3.75;72.87;99463.03;32004269;27;20412;-64
2024/01/16 20:24:06;;;;;;;20.53;8.83;;;;;;;-3.56;72.23;99460.09;32041131;27;20035;-63
2024/01/16 20:39:08;;;;;;;17.20;8.40;;;;;;;-3.26;72.11;99459.06;32017797;27;20031;-66
2024/01/16 20:54:09;;;;;;;13.90;7.25;;;;;;;-3.14;72.04;99468.69;32120140;27;20054;-64
2024/01/16 21:09:15;;;;;;;23.95;11.68;;;;;;;-2.92;71.74;99475.09;32053288;27;20494;-61
2024/01/16 21:24:15;;;;;;;30.08;10.45;;;;;;;-2.92;71.64;99451.63;31988957;27;20031;-66
2024/01/16 21:39:16;;;;;;;16.05;8.93;;;;;;;-3.12;71.56;99448.56;32025495;27;43150;-62
2024/01/16 21:54:16;;;;;;;19.02;8.50;;;;;;;-3.49;71.36;99456.16;32054205;27;20111;-62
2024/01/16 22:09:20;;;;;;;16.38;8.55;;;;;;;-3.58;71.08;99469.78;32114283;27;29819;-66
2024/01/16 22:24:21;;;;;;;13.27;7.07;;;;;;;-3.85;71.01;99451.53;32120542;27;20110;-66
2024/01/16 22:39:23;;;;;;;17.73;8.00;;;;;;;-3.97;71.67;99435.75;32124390;27;20070;-62
2024/01/16 22:54:24;;;;;;;15.55;8.10;;;;;;;-4.28;71.45;99423.81;32146283;27;20092;-62
2024/01/16 23:09:25;;;;;;;18.27;7.03;;;;;;;-4.27;71.68;99425.50;32144311;27;41388;-62
2024/01/16 23:24:25;;;;;;;14.80;7.18;;;;;;;-4.27;71.79;99417.69;32143275;27;20035;-61
2024/01/16 23:39:25;;;;;;;16.42;7.30;;;;;;;-4.44;71.88;99403.97;32141804;27;20045;-62
2024/01/16 23:54:25;;;;;;;15.50;7.85;;;;;;;-4.67;72.00;99381.97;32138569;27;20039;-61
